Time,TemperatureF,DewpointF,PressureIn,WindDirection,WindDirectionDegrees,WindSpeedMPH,WindSpeedGustMPH,Humidity,HourlyPrecipIn,Conditions,Clouds,dailyrainin,SolarRadiationWatts/m^2,SoftwareType,DateUTC
2013-01-26 00:00:00,37.7,27.8,-100.00,SSW,198,5.1,7.4,66,0.00,,,-99.99,1.0,HOBO +U30 +Weather +,2013-01-26 07:00:00,
2013-01-26 00:05:00,37.8,27.8,-100.00,SSW,198,4.5,6.7,66,0.00,,,-99.99,1.0,HOBO +U30 +Weather +,2013-01-26 07:05:00,
2013-01-26 00:10:00,38.0,27.8,-100.00,SSW,199,3.4,5.1,66,0.00,,,-99.99,1.0,HOBO +U30 +Weather +,2013-01-26 07:10:00,
2013-01-26 00:15:00,38.3,27.8,-100.00,SSW,205,1.1,3.4,65,0.00,,,-99.99,1.0,HOBO +U30 +Weather +,2013-01-26 07:15:00,
2013-01-26 00:20:00,38.7,27.7,-100.00,SSW,209,2.2,4.5,64,0.00,,,-99.99,1.0,HOBO +U30 +Weather +,2013-01-26 07:20:00,
2013-01-26 00:25:00,39.0,27.5,-100.00,SSW,206,4.5,7.8,63,0.00,,,-99.99,1.0,HOBO +U30 +Weather +,2013-01-26 07:25:00,
2013-01-26 00:30:00,39.1,27.5,-100.00,SSW,212,2.9,6.3,62,0.00,,,-99.99,1.0,HOBO +U30 +Weather +,2013-01-26 07:30:00,
2013-01-26 00:35:00,38.8,27.4,-100.00,SSW,195,3.4,5.6,63,0.00,,,-99.99,1.0,HOBO +U30 +Weather +,2013-01-26 07:35:00,
2013-01-26 01:00:00,39.8,27.2,-100.00,SW,225,3.4,6.3,60,0.00,,,-99.99,1.0,HOBO +U30 +Weather +,2013-01-26 08:00:00,
2013-01-26 01:05:00,39.9,27.2,-100.00,SW,236,2.9,6.7,60,0.00,,,-99.99,1.0,HOBO +U30 +Weather +,2013-01-26 08:05:00,
2013-01-26 01:10:00,40.4,27.3,-100.00,SW,234,2.9,5.1,59,0.00,,,-99.99,1.0,HOBO +U30 +Weather +,2013-01-26 08:10:00,
2013-01-26 01:15:00,40.3,27.2,-100.00,SSW,209,2.2,6.7,59,0.00,,,-99.99,1.0,HOBO +U30 +Weather +,2013-01-26 08:15:00,
2013-01-26 01:20:00,39.3,27.1,-100.00,SSW,195,2.9,4.5,61,0.00,,,-99.99,1.0,HOBO +U30 +Weather +,2013-01-26 08:20:00,
2013-01-26 01:25:00,39.7,27.2,-100.00,SSW,194,2.9,4.5,60,0.00,,,-99.99,1.0,HOBO +U30 +Weather +,2013-01-26 08:25:00,
2013-01-26 01:30:00,39.6,27.2,-100.00,South,187,4.0,5.6,60,0.00,,,-99.99,1.0,HOBO +U30 +Weather +,2013-01-26 08:30:00,
2013-01-26 01:35:00,39.4,27.2,-100.00,SSW,197,3.4,5.1,61,0.00,,,-99.99,1.0,HOBO +U30 +Weather +,2013-01-26 08:35:00,
2013-01-26 01:55:00,40.0,27.2,-100.00,SSW,195,4.5,6.3,59,0.00,,,-99.99,1.0,HOBO +U30 +Weather +,2013-01-26 08:55:00,
2013-01-26 02:00:00,40.2,27.1,-100.00,SSW,205,4.0,5.6,59,0.00,,,-99.99,1.0,HOBO +U30 +Weather +,2013-01-26 09:00:00,
2013-01-26 02:05:00,40.3,27.0,-100.00,South,188,3.4,5.1,58,0.00,,,-99.99,1.0,HOBO +U30 +Weather +,2013-01-26 09:05:00,
2013-01-26 02:15:00,40.8,27.0,-100.00,South,178,4.5,6.3,57,0.00,,,-99.99,1.0,HOBO +U30 +Weather +,2013-01-26 09:15:00,
2013-01-26 02:30:00,40.4,26.9,-100.00,South,180,4.0,6.3,58,0.00,,,-99.99,1.0,HOBO +U30 +Weather +,2013-01-26 09:30:00,
2013-01-26 02:35:00,40.4,26.9,-100.00,South,188,4.0,5.6,58,0.00,,,-99.99,1.0,HOBO +U30 +Weather +,2013-01-26 09:35:00,
2013-01-26 02:40:00,40.4,26.9,-100.00,South,184,3.4,5.6,58,0.00,,,-99.99,1.0,HOBO +U30 +Weather +,2013-01-26 09:40:00,
2013-01-26 02:45:00,40.7,26.8,-100.00,South,191,2.2,4.0,57,0.00,,,-99.99,1.0,HOBO +U30 +Weather +,2013-01-26 09:45:00,
2013-01-26 02:50:00,40.8,26.9,-100.00,SSW,199,3.4,4.5,57,0.00,,,-99.99,1.0,HOBO +U30 +Weather +,2013-01-26 09:50:00,
2013-01-26 02:55:00,40.8,26.7,-100.00,SSW,194,3.4,5.1,57,0.00,,,-99.99,1.0,HOBO +U30 +Weather +,2013-01-26 09:55:00,
2013-01-26 03:00:00,40.6,26.8,-100.00,South,190,4.0,5.1,57,0.00,,,-99.99,1.0,HOBO +U30 +Weather +,2013-01-26 10:00:00,
2013-01-26 03:25:00,40.4,26.7,-100.00,SSW,212,3.4,5.1,57,0.00,,,-99.99,1.0,HOBO +U30 +Weather +,2013-01-26 10:25:00,
2013-01-26 03:30:00,38.9,26.9,-100.00,SSW,194,4.5,6.7,61,0.00,,,-99.99,1.0,HOBO +U30 +Weather +,2013-01-26 10:30:00,
2013-01-26 03:35:00,38.0,27.1,-100.00,South,178,5.1,6.7,64,0.00,,,-99.99,1.0,HOBO +U30 +Weather +,2013-01-26 10:35:00,
2013-01-26 03:40:00,37.8,27.4,-100.00,South,178,5.1,7.4,65,0.00,,,-99.99,1.0,HOBO +U30 +Weather +,2013-01-26 10:40:00,
2013-01-26 03:45:00,37.7,27.4,-100.00,South,173,5.6,7.4,65,0.00,,,-99.99,1.0,HOBO +U30 +Weather +,2013-01-26 10:45:00,
2013-01-26 03:50:00,37.5,27.6,-100.00,South,191,3.4,5.6,67,0.00,,,-99.99,1.0,HOBO +U30 +Weather +,2013-01-26 10:50:00,
2013-01-26 03:55:00,38.2,27.6,-100.00,SSW,199,2.9,5.1,65,0.00,,,-99.99,1.0,HOBO +U30 +Weather +,2013-01-26 10:55:00,
2013-01-26 04:00:00,38.1,27.7,-100.00,SSW,194,2.9,4.5,65,0.00,,,-99.99,1.0,HOBO +U30 +Weather +,2013-01-26 11:00:00,
2013-01-26 04:20:00,38.0,27.7,-100.00,South,187,2.9,5.1,66,0.00,,,-99.99,1.0,HOBO +U30 +Weather +,2013-01-26 11:20:00,
2013-01-26 04:25:00,38.3,27.8,-100.00,SW,216,1.8,4.0,65,0.00,,,-99.99,1.0,HOBO +U30 +Weather +,2013-01-26 11:25:00,
2013-01-26 04:30:00,38.0,27.7,-100.00,WSW,251,1.1,3.4,65,0.00,,,-99.99,1.0,HOBO +U30 +Weather +,2013-01-26 11:30:00,
2013-01-26 04:35:00,38.4,27.5,-100.00,SW,219,2.2,4.0,64,0.00,,,-99.99,1.0,HOBO +U30 +Weather +,2013-01-26 11:35:00,
2013-01-26 04:55:00,38.1,27.2,-100.00,SW,219,0.0,0.0,64,0.00,,,-99.99,1.0,HOBO +U30 +Weather +,2013-01-26 11:55:00,
2013-01-26 05:00:00,37.8,27.2,-100.00,South,184,1.8,3.4,65,0.00,,,-99.99,1.0,HOBO +U30 +Weather +,2013-01-26 12:00:00,
2013-01-26 05:05:00,38.0,27.1,-100.00,SSW,199,1.1,3.4,64,0.00,,,-99.99,1.0,HOBO +U30 +Weather +,2013-01-26 12:05:00,
2013-01-26 05:10:00,38.2,27.1,-100.00,South,184,2.9,5.6,63,0.00,,,-99.99,1.0,HOBO +U30 +Weather +,2013-01-26 12:10:00,
2013-01-26 05:15:00,37.9,27.0,-100.00,SSW,192,3.4,5.1,64,0.00,,,-99.99,1.0,HOBO +U30 +Weather +,2013-01-26 12:15:00,
2013-01-26 05:20:00,38.3,26.9,-100.00,South,175,2.2,4.0,63,0.00,,,-99.99,1.0,HOBO +U30 +Weather +,2013-01-26 12:20:00,
2013-01-26 05:25:00,38.4,26.9,-100.00,South,173,1.8,3.4,62,0.00,,,-99.99,1.0,HOBO +U30 +Weather +,2013-01-26 12:25:00,
2013-01-26 05:30:00,38.8,26.9,-100.00,South,174,1.8,2.9,62,0.00,,,-99.99,1.0,HOBO +U30 +Weather +,2013-01-26 12:30:00,
2013-01-26 05:35:00,38.9,27.0,-100.00,SSW,198,2.2,3.4,61,0.00,,,-99.99,1.0,HOBO +U30 +Weather +,2013-01-26 12:35:00,
2013-01-26 05:40:00,39.0,26.8,-100.00,SSW,212,2.2,4.0,61,0.00,,,-99.99,1.0,HOBO +U30 +Weather +,2013-01-26 12:40:00,
2013-01-26 05:45:00,38.9,26.9,-100.00,SSW,209,1.8,4.0,61,0.00,,,-99.99,1.0,HOBO +U30 +Weather +,2013-01-26 12:45:00,
2013-01-26 05:50:00,38.6,26.9,-100.00,SSW,201,1.8,3.4,62,0.00,,,-99.99,1.0,HOBO +U30 +Weather +,2013-01-26 12:50:00,
2013-01-26 05:55:00,37.7,26.8,-100.00,SSW,202,0.0,2.2,64,0.00,,,-99.99,1.0,HOBO +U30 +Weather +,2013-01-26 12:55:00,
2013-01-26 06:00:00,36.7,27.0,-100.00,WNW,286,1.1,2.9,67,0.00,,,-99.99,1.0,HOBO +U30 +Weather +,2013-01-26 13:00:00,
2013-01-26 06:05:00,37.6,27.1,-100.00,NNW,337,0.0,1.1,65,0.00,,,-99.99,1.0,HOBO +U30 +Weather +,2013-01-26 13:05:00,
2013-01-26 06:10:00,38.4,27.0,-100.00,WSW,251,1.1,2.9,63,0.00,,,-99.99,1.0,HOBO +U30 +Weather +,2013-01-26 13:10:00,
2013-01-26 06:15:00,38.4,27.0,-100.00,SW,226,1.1,3.4,63,0.00,,,-99.99,1.0,HOBO +U30 +Weather +,2013-01-26 13:15:00,
2013-01-26 06:20:00,38.0,27.0,-100.00,SSW,212,0.0,1.8,64,0.00,,,-99.99,1.0,HOBO +U30 +Weather +,2013-01-26 13:20:00,
2013-01-26 06:25:00,37.9,26.9,-100.00,SSW,211,0.7,2.2,64,0.00,,,-99.99,1.0,HOBO +U30 +Weather +,2013-01-26 13:25:00,
2013-01-26 06:30:00,38.0,26.9,-100.00,South,190,1.1,2.2,63,0.00,,,-99.99,1.0,HOBO +U30 +Weather +,2013-01-26 13:30:00,
2013-01-26 06:35:00,38.0,26.8,-100.00,South,183,2.9,4.0,63,0.00,,,-99.99,1.0,HOBO +U30 +Weather +,2013-01-26 13:35:00,
2013-01-26 06:40:00,37.9,26.7,-100.00,South,188,2.9,4.5,63,0.00,,,-99.99,1.0,HOBO +U30 +Weather +,2013-01-26 13:40:00,
2013-01-26 06:45:00,37.7,26.8,-100.00,SSW,192,3.4,4.5,64,0.00,,,-99.99,1.0,HOBO +U30 +Weather +,2013-01-26 13:45:00,
2013-01-26 06:50:00,37.4,26.7,-100.00,SSW,198,0.7,2.9,65,0.00,,,-99.99,1.0,HOBO +U30 +Weather +,2013-01-26 13:50:00,
2013-01-26 06:55:00,36.8,26.8,-100.00,West,268,1.1,4.5,66,0.00,,,-99.99,1.0,HOBO +U30 +Weather +,2013-01-26 13:55:00,
2013-01-26 07:00:00,36.4,26.8,-100.00,North,351,4.0,5.6,67,0.00,,,-99.99,1.0,HOBO +U30 +Weather +,2013-01-26 14:00:00,
2013-01-26 07:05:00,36.9,26.9,-100.00,North,355,2.9,5.1,66,0.00,,,-99.99,1.0,HOBO +U30 +Weather +,2013-01-26 14:05:00,
2013-01-26 07:10:00,37.3,26.6,-100.00,North,355,0.0,0.7,65,0.00,,,-99.99,1.0,HOBO +U30 +Weather +,2013-01-26 14:10:00,
2013-01-26 07:15:00,37.4,27.0,-100.00,North,355,0.0,1.1,65,0.00,,,-99.99,1.0,HOBO +U30 +Weather +,2013-01-26 14:15:00,
2013-01-26 07:20:00,37.6,26.9,-100.00,SW,230,1.1,2.2,65,0.00,,,-99.99,1.0,HOBO +U30 +Weather +,2013-01-26 14:20:00,
2013-01-26 07:25:00,37.7,26.8,-100.00,South,185,1.8,3.4,64,0.00,,,-99.99,1.0,HOBO +U30 +Weather +,2013-01-26 14:25:00,
2013-01-26 07:30:00,37.8,26.8,-100.00,SSE,156,4.0,5.6,64,0.00,,,-99.99,1.0,HOBO +U30 +Weather +,2013-01-26 14:30:00,
2013-01-26 07:50:00,36.6,26.8,-100.00,South,177,6.3,8.9,67,0.00,,,-99.99,3.0,HOBO +U30 +Weather +,2013-01-26 14:50:00,
2013-01-26 08:00:00,36.0,27.2,-100.00,South,187,5.6,7.4,69,0.00,,,-99.99,11.0,HOBO +U30 +Weather +,2013-01-26 15:00:00,
2013-01-26 08:05:00,36.1,27.4,-100.00,SSW,192,4.0,5.6,70,0.00,,,-99.99,14.0,HOBO +U30 +Weather +,2013-01-26 15:05:00,
2013-01-26 08:10:00,36.3,27.4,-100.00,South,183,4.5,6.3,69,0.00,,,-99.99,21.0,HOBO +U30 +Weather +,2013-01-26 15:10:00,
2013-01-26 08:15:00,36.4,27.4,-100.00,South,183,4.0,6.7,69,0.00,,,-99.99,26.0,HOBO +U30 +Weather +,2013-01-26 15:15:00,
2013-01-26 08:30:00,36.6,27.3,-100.00,SSW,197,0.0,0.7,68,0.00,,,-99.99,38.0,HOBO +U30 +Weather +,2013-01-26 15:30:00,
2013-01-26 08:40:00,35.9,27.5,-100.00,SSW,197,0.0,1.1,71,0.00,,,-99.99,46.0,HOBO +U30 +Weather +,2013-01-26 15:40:00,
2013-01-26 08:45:00,36.5,27.5,-100.00,SSW,199,0.0,1.8,69,0.00,,,-99.99,39.0,HOBO +U30 +Weather +,2013-01-26 15:45:00,
2013-01-26 08:50:00,37.3,27.5,-100.00,SSW,205,0.0,1.8,67,0.00,,,-99.99,41.0,HOBO +U30 +Weather +,2013-01-26 15:50:00,
2013-01-26 08:55:00,37.9,27.6,-100.00,SSW,205,0.0,0.0,66,0.00,,,-99.99,38.0,HOBO +U30 +Weather +,2013-01-26 15:55:00,
2013-01-26 09:00:00,37.9,27.3,-100.00,SSW,205,0.0,0.7,65,0.00,,,-99.99,38.0,HOBO +U30 +Weather +,2013-01-26 16:00:00,
2013-01-26 09:05:00,38.0,27.1,-100.00,SSW,198,1.8,4.0,64,0.00,,,-99.99,36.0,HOBO +U30 +Weather +,2013-01-26 16:05:00,
2013-01-26 09:10:00,38.4,27.0,-100.00,South,188,3.4,5.1,63,0.00,,,-99.99,43.0,HOBO +U30 +Weather +,2013-01-26 16:10:00,
2013-01-26 09:15:00,38.4,26.9,-100.00,South,191,1.1,3.4,63,0.00,,,-99.99,74.0,HOBO +U30 +Weather +,2013-01-26 16:15:00,
2013-01-26 09:20:00,38.8,26.9,-100.00,South,185,2.9,4.5,62,0.00,,,-99.99,78.0,HOBO +U30 +Weather +,2013-01-26 16:20:00,
2013-01-26 09:35:00,40.7,27.6,-100.00,South,191,3.4,5.6,59,0.00,,,-99.99,289.0,HOBO +U30 +Weather +,2013-01-26 16:35:00,
2013-01-26 09:40:00,41.4,27.6,-100.00,South,191,4.0,5.6,57,0.00,,,-99.99,324.0,HOBO +U30 +Weather +,2013-01-26 16:40:00,
2013-01-26 09:45:00,41.9,27.7,-100.00,SSW,194,4.0,5.6,56,0.00,,,-99.99,332.0,HOBO +U30 +Weather +,2013-01-26 16:45:00,
2013-01-26 09:50:00,42.6,27.7,-100.00,SSW,199,2.9,6.7,55,0.00,,,-99.99,308.0,HOBO +U30 +Weather +,2013-01-26 16:50:00,
2013-01-26 09:55:00,42.3,27.5,-100.00,SSW,206,4.5,7.4,55,0.00,,,-99.99,302.0,HOBO +U30 +Weather +,2013-01-26 16:55:00,
2013-01-26 10:00:00,43.0,27.2,-100.00,SSW,206,3.4,8.5,53,0.00,,,-99.99,332.0,HOBO +U30 +Weather +,2013-01-26 17:00:00,
2013-01-26 10:05:00,43.2,27.2,-100.00,SSW,206,5.1,9.6,52,0.00,,,-99.99,344.0,HOBO +U30 +Weather +,2013-01-26 17:05:00,
2013-01-26 10:10:00,44.1,27.7,-100.00,SSW,206,5.6,8.9,52,0.00,,,-99.99,332.0,HOBO +U30 +Weather +,2013-01-26 17:10:00,
2013-01-26 10:15:00,44.1,27.3,-100.00,SW,227,4.5,7.8,51,0.00,,,-99.99,324.0,HOBO +U30 +Weather +,2013-01-26 17:15:00,
2013-01-26 10:20:00,44.3,27.0,-100.00,WSW,239,5.6,8.5,50,0.00,,,-99.99,329.0,HOBO +U30 +Weather +,2013-01-26 17:20:00,
2013-01-26 10:25:00,44.5,26.9,-100.00,SW,229,7.4,10.7,49,0.00,,,-99.99,334.0,HOBO +U30 +Weather +,2013-01-26 17:25:00,
2013-01-26 10:30:00,45.9,27.3,-100.00,SW,223,4.0,7.8,47,0.00,,,-99.99,343.0,HOBO +U30 +Weather +,2013-01-26 17:30:00,
2013-01-26 10:35:00,46.7,27.7,-100.00,SW,234,2.9,5.1,47,0.00,,,-99.99,349.0,HOBO +U30 +Weather +,2013-01-26 17:35:00,
2013-01-26 10:40:00,47.4,27.7,-100.00,SW,215,2.9,6.3,46,0.00,,,-99.99,357.0,HOBO +U30 +Weather +,2013-01-26 17:40:00,
2013-01-26 10:45:00,46.6,27.1,-100.00,WSW,244,6.3,10.1,46,0.00,,,-99.99,363.0,HOBO +U30 +Weather +,2013-01-26 17:45:00,
2013-01-26 10:55:00,47.2,26.5,-100.00,SW,233,7.8,14.1,44,0.00,,,-99.99,376.0,HOBO +U30 +Weather +,2013-01-26 17:55:00,
2013-01-26 11:00:00,47.7,26.7,-100.00,WSW,251,8.5,13.4,43,0.00,,,-99.99,382.0,HOBO +U30 +Weather +,2013-01-26 18:00:00,
2013-01-26 11:05:00,47.7,26.4,-100.00,WSW,246,8.9,13.4,43,0.00,,,-99.99,387.0,HOBO +U30 +Weather +,2013-01-26 18:05:00,
2013-01-26 11:10:00,48.3,26.7,-100.00,SW,226,7.8,13.4,42,0.00,,,-99.99,393.0,HOBO +U30 +Weather +,2013-01-26 18:10:00,
2013-01-26 11:15:00,48.7,26.9,-100.00,WSW,239,6.3,10.1,42,0.00,,,-99.99,399.0,HOBO +U30 +Weather +,2013-01-26 18:15:00,
2013-01-26 11:20:00,49.2,27.0,-100.00,SW,225,5.6,10.7,41,0.00,,,-99.99,409.0,HOBO +U30 +Weather +,2013-01-26 18:20:00,
2013-01-26 11:25:00,49.0,26.8,-100.00,SW,219,6.7,11.2,41,0.00,,,-99.99,411.0,HOBO +U30 +Weather +,2013-01-26 18:25:00,
2013-01-26 11:30:00,49.8,27.2,-100.00,SSW,213,7.4,12.3,41,0.00,,,-99.99,404.0,HOBO +U30 +Weather +,2013-01-26 18:30:00,
2013-01-26 11:35:00,49.8,27.2,-100.00,SW,216,6.7,10.7,41,0.00,,,-99.99,408.0,HOBO +U30 +Weather +,2013-01-26 18:35:00,
2013-01-26 11:40:00,50.2,27.7,-100.00,WSW,241,5.6,9.6,41,0.00,,,-99.99,454.0,HOBO +U30 +Weather +,2013-01-26 18:40:00,
2013-01-26 11:45:00,50.8,27.1,-100.00,SW,215,5.6,10.7,39,0.00,,,-99.99,444.0,HOBO +U30 +Weather +,2013-01-26 18:45:00,
2013-01-26 12:05:00,50.7,27.1,-100.00,SSW,198,6.7,10.1,39,0.00,,,-99.99,478.0,HOBO +U30 +Weather +,2013-01-26 19:05:00,
2013-01-26 12:10:00,50.8,27.5,-100.00,South,188,6.7,10.7,40,0.00,,,-99.99,439.0,HOBO +U30 +Weather +,2013-01-26 19:10:00,
2013-01-26 12:15:00,50.8,27.5,-100.00,SSE,168,6.3,9.6,40,0.00,,,-99.99,466.0,HOBO +U30 +Weather +,2013-01-26 19:15:00,
2013-01-26 12:20:00,50.4,27.3,-100.00,South,171,5.1,8.5,40,0.00,,,-99.99,454.0,HOBO +U30 +Weather +,2013-01-26 19:20:00,
2013-01-26 12:25:00,50.5,27.6,-100.00,SSE,168,5.6,8.5,40,0.00,,,-99.99,396.0,HOBO +U30 +Weather +,2013-01-26 19:25:00,
2013-01-26 12:30:00,50.4,27.1,-100.00,SSE,154,6.3,8.5,40,0.00,,,-99.99,438.0,HOBO +U30 +Weather +,2013-01-26 19:30:00,
2013-01-26 12:35:00,51.4,27.5,-100.00,SSE,166,5.1,8.5,39,0.00,,,-99.99,424.0,HOBO +U30 +Weather +,2013-01-26 19:35:00,
2013-01-26 12:40:00,51.6,27.8,-100.00,SE,139,4.0,7.4,39,0.00,,,-99.99,427.0,HOBO +U30 +Weather +,2013-01-26 19:40:00,
2013-01-26 12:45:00,51.8,28.3,-100.00,SE,128,4.5,7.8,40,0.00,,,-99.99,423.0,HOBO +U30 +Weather +,2013-01-26 19:45:00,
2013-01-26 13:00:00,53.3,27.7,-100.00,South,187,3.4,7.4,37,0.00,,,-99.99,422.0,HOBO +U30 +Weather +,2013-01-26 20:00:00,
2013-01-26 13:05:00,53.3,27.6,-100.00,SSW,204,4.0,6.7,36,0.00,,,-99.99,423.0,HOBO +U30 +Weather +,2013-01-26 20:05:00,
2013-01-26 13:10:00,53.8,27.2,-100.00,SSW,197,3.4,6.3,35,0.00,,,-99.99,424.0,HOBO +U30 +Weather +,2013-01-26 20:10:00,
2013-01-26 13:15:00,53.5,27.6,-100.00,SSW,205,4.5,7.4,36,0.00,,,-99.99,422.0,HOBO +U30 +Weather +,2013-01-26 20:15:00,
2013-01-26 13:20:00,53.7,27.8,-100.00,South,185,4.0,6.3,36,0.00,,,-99.99,423.0,HOBO +U30 +Weather +,2013-01-26 20:20:00,
2013-01-26 13:25:00,54.1,27.9,-100.00,SSW,202,3.4,6.7,36,0.00,,,-99.99,406.0,HOBO +U30 +Weather +,2013-01-26 20:25:00,
2013-01-26 13:30:00,55.1,28.1,-100.00,SW,215,2.2,5.6,35,0.00,,,-99.99,412.0,HOBO +U30 +Weather +,2013-01-26 20:30:00,
2013-01-26 13:35:00,55.3,28.3,-100.00,South,188,2.2,4.5,35,0.00,,,-99.99,398.0,HOBO +U30 +Weather +,2013-01-26 20:35:00,
2013-01-26 13:40:00,56.0,28.7,-100.00,SSW,202,0.0,2.9,34,0.00,,,-99.99,401.0,HOBO +U30 +Weather +,2013-01-26 20:40:00,
2013-01-26 13:45:00,56.2,28.3,-100.00,SSW,195,0.0,2.2,34,0.00,,,-99.99,393.0,HOBO +U30 +Weather +,2013-01-26 20:45:00,
2013-01-26 14:00:00,55.6,28.4,-100.00,SE,128,0.7,3.4,35,0.00,,,-99.99,373.0,HOBO +U30 +Weather +,2013-01-26 21:00:00,
2013-01-26 14:05:00,56.1,29.1,-100.00,SSE,154,1.1,4.5,35,0.00,,,-99.99,361.0,HOBO +U30 +Weather +,2013-01-26 21:05:00,
2013-01-26 14:10:00,57.0,29.2,-100.00,South,174,0.0,2.2,34,0.00,,,-99.99,348.0,HOBO +U30 +Weather +,2013-01-26 21:10:00,
2013-01-26 14:15:00,55.4,28.5,-100.00,SW,229,1.1,4.0,35,0.00,,,-99.99,353.0,HOBO +U30 +Weather +,2013-01-26 21:15:00,
2013-01-26 14:20:00,55.3,28.5,-100.00,West,260,0.7,2.9,35,0.00,,,-99.99,334.0,HOBO +U30 +Weather +,2013-01-26 21:20:00,
2013-01-26 14:25:00,55.4,28.5,-100.00,West,260,0.0,2.2,35,0.00,,,-99.99,324.0,HOBO +U30 +Weather +,2013-01-26 21:25:00,
2013-01-26 14:30:00,57.6,29.0,-100.00,West,260,0.0,1.1,33,0.00,,,-99.99,329.0,HOBO +U30 +Weather +,2013-01-26 21:30:00,
2013-01-26 14:35:00,56.5,28.7,-100.00,WSW,258,0.7,2.9,34,0.00,,,-99.99,318.0,HOBO +U30 +Weather +,2013-01-26 21:35:00,
2013-01-26 14:40:00,57.6,29.0,-100.00,West,261,0.0,2.2,33,0.00,,,-99.99,319.0,HOBO +U30 +Weather +,2013-01-26 21:40:00,
2013-01-26 14:45:00,56.7,29.1,-100.00,West,267,0.0,2.2,34,0.00,,,-99.99,223.0,HOBO +U30 +Weather +,2013-01-26 21:45:00,
2013-01-26 15:05:00,57.8,28.7,-100.00,WSW,250,0.0,0.0,32,0.00,,,-99.99,263.0,HOBO +U30 +Weather +,2013-01-26 22:05:00,
2013-01-26 15:25:00,59.3,29.4,-100.00,WSW,250,0.0,0.0,31,0.00,,,-99.99,237.0,HOBO +U30 +Weather +,2013-01-26 22:25:00,
2013-01-26 15:30:00,60.2,29.5,-100.00,WSW,250,0.0,0.0,31,0.00,,,-99.99,229.0,HOBO +U30 +Weather +,2013-01-26 22:30:00,
2013-01-26 15:35:00,57.6,28.9,-100.00,WSW,250,0.0,2.2,33,0.00,,,-99.99,216.0,HOBO +U30 +Weather +,2013-01-26 22:35:00,
2013-01-26 15:40:00,58.7,29.1,-100.00,WSW,250,0.0,1.1,32,0.00,,,-99.99,211.0,HOBO +U30 +Weather +,2013-01-26 22:40:00,
2013-01-26 15:45:00,57.5,28.8,-100.00,SSW,212,1.8,4.0,33,0.00,,,-99.99,173.0,HOBO +U30 +Weather +,2013-01-26 22:45:00,
2013-01-26 16:05:00,56.4,28.9,-100.00,SW,219,2.2,4.0,34,0.00,,,-99.99,138.0,HOBO +U30 +Weather +,2013-01-26 23:05:00,
2013-01-26 16:10:00,56.9,29.0,-100.00,SW,232,1.8,3.4,34,0.00,,,-99.99,147.0,HOBO +U30 +Weather +,2013-01-26 23:10:00,
2013-01-26 16:15:00,56.0,28.7,-100.00,SW,227,2.2,4.5,35,0.00,,,-99.99,114.0,HOBO +U30 +Weather +,2013-01-26 23:15:00,
2013-01-26 16:20:00,55.9,28.7,-100.00,SW,227,2.2,5.1,35,0.00,,,-99.99,86.0,HOBO +U30 +Weather +,2013-01-26 23:20:00,
2013-01-26 16:25:00,56.5,29.0,-100.00,SW,218,1.1,2.9,34,0.00,,,-99.99,79.0,HOBO +U30 +Weather +,2013-01-26 23:25:00,
2013-01-26 16:30:00,55.8,28.6,-100.00,SSW,212,0.0,1.8,35,0.00,,,-99.99,27.0,HOBO +U30 +Weather +,2013-01-26 23:30:00,
2013-01-26 16:35:00,54.9,28.5,-100.00,SSW,212,0.0,1.1,36,0.00,,,-99.99,26.0,HOBO +U30 +Weather +,2013-01-26 23:35:00,
2013-01-26 16:45:00,54.3,28.1,-100.00,WSW,244,1.8,2.9,36,0.00,,,-99.99,21.0,HOBO +U30 +Weather +,2013-01-26 23:45:00,
2013-01-26 16:50:00,54.4,28.1,-100.00,WSW,247,0.0,1.1,36,0.00,,,-99.99,32.0,HOBO +U30 +Weather +,2013-01-26 23:50:00,
2013-01-26 16:55:00,54.4,28.1,-100.00,WSW,247,0.0,0.7,36,0.00,,,-99.99,17.0,HOBO +U30 +Weather +,2013-01-26 23:55:00,
2013-01-26 17:00:00,53.8,27.9,-100.00,WSW,247,0.0,0.0,36,0.00,,,-99.99,9.0,HOBO +U30 +Weather +,2013-01-27 00:00:00,
2013-01-26 17:05:00,53.0,28.2,-100.00,WSW,247,0.0,2.2,38,0.00,,,-99.99,7.0,HOBO +U30 +Weather +,2013-01-27 00:05:00,
2013-01-26 17:10:00,52.8,29.0,-100.00,ENE,58,3.4,4.5,39,0.00,,,-99.99,4.0,HOBO +U30 +Weather +,2013-01-27 00:10:00,
2013-01-26 17:15:00,51.9,28.6,-100.00,ENE,62,4.5,5.6,40,0.00,,,-99.99,3.0,HOBO +U30 +Weather +,2013-01-27 00:15:00,
2013-01-26 17:20:00,51.8,28.4,-100.00,ENE,66,4.0,6.3,40,0.00,,,-99.99,2.0,HOBO +U30 +Weather +,2013-01-27 00:20:00,
2013-01-26 17:25:00,51.3,28.6,-100.00,SSE,157,2.9,7.4,41,0.00,,,-99.99,1.0,HOBO +U30 +Weather +,2013-01-27 00:25:00,
2013-01-26 17:30:00,51.0,28.4,-100.00,SSE,156,7.4,8.9,41,0.00,,,-99.99,1.0,HOBO +U30 +Weather +,2013-01-27 00:30:00,
2013-01-26 17:35:00,50.0,28.1,-100.00,South,170,5.6,7.4,42,0.00,,,-99.99,1.0,HOBO +U30 +Weather +,2013-01-27 00:35:00,
2013-01-26 17:40:00,49.8,28.0,-100.00,South,180,4.5,6.3,42,0.00,,,-99.99,1.0,HOBO +U30 +Weather +,2013-01-27 00:40:00,
2013-01-26 17:50:00,49.3,28.0,-100.00,South,184,4.0,5.6,43,0.00,,,-99.99,1.0,HOBO +U30 +Weather +,2013-01-27 00:50:00,
2013-01-26 17:55:00,49.7,27.8,-100.00,South,170,4.5,6.7,42,0.00,,,-99.99,1.0,HOBO +U30 +Weather +,2013-01-27 00:55:00,
2013-01-26 18:00:00,49.0,27.9,-100.00,SSE,157,4.5,6.7,43,0.00,,,-99.99,1.0,HOBO +U30 +Weather +,2013-01-27 01:00:00,
2013-01-26 18:05:00,48.9,28.0,-100.00,South,184,3.4,5.6,43,0.00,,,-99.99,1.0,HOBO +U30 +Weather +,2013-01-27 01:05:00,
2013-01-26 18:10:00,48.5,27.8,-100.00,SSE,157,4.0,6.7,44,0.00,,,-99.99,1.0,HOBO +U30 +Weather +,2013-01-27 01:10:00,
2013-01-26 18:15:00,46.7,27.8,-100.00,South,173,3.4,5.6,47,0.00,,,-99.99,1.0,HOBO +U30 +Weather +,2013-01-27 01:15:00,
2013-01-26 18:20:00,46.4,27.7,-100.00,South,173,4.0,5.6,47,0.00,,,-99.99,1.0,HOBO +U30 +Weather +,2013-01-27 01:20:00,
2013-01-26 18:25:00,46.9,27.9,-100.00,South,181,4.5,6.3,47,0.00,,,-99.99,1.0,HOBO +U30 +Weather +,2013-01-27 01:25:00,
2013-01-26 18:30:00,47.0,28.2,-100.00,SSW,195,3.4,6.3,47,0.00,,,-99.99,1.0,HOBO +U30 +Weather +,2013-01-27 01:30:00,
2013-01-26 18:35:00,47.4,28.3,-100.00,SW,216,2.9,5.1,47,0.00,,,-99.99,1.0,HOBO +U30 +Weather +,2013-01-27 01:35:00,
2013-01-26 18:40:00,47.5,28.5,-100.00,SSW,202,2.9,6.3,47,0.00,,,-99.99,1.0,HOBO +U30 +Weather +,2013-01-27 01:40:00,
2013-01-26 18:45:00,47.9,28.2,-100.00,South,181,5.6,8.5,46,0.00,,,-99.99,1.0,HOBO +U30 +Weather +,2013-01-27 01:45:00,
2013-01-26 18:50:00,47.3,28.4,-100.00,SSW,202,5.1,6.7,47,0.00,,,-99.99,1.0,HOBO +U30 +Weather +,2013-01-27 01:50:00,
2013-01-26 18:55:00,48.0,28.1,-100.00,SW,218,6.3,10.7,45,0.00,,,-99.99,1.0,HOBO +U30 +Weather +,2013-01-27 01:55:00,
2013-01-26 19:00:00,47.3,27.7,-100.00,South,184,5.1,8.9,46,0.00,,,-99.99,1.0,HOBO +U30 +Weather +,2013-01-27 02:00:00,
2013-01-26 19:05:00,46.6,27.9,-100.00,SSE,161,3.4,5.1,47,0.00,,,-99.99,1.0,HOBO +U30 +Weather +,2013-01-27 02:05:00,
2013-01-26 19:10:00,46.6,28.1,-100.00,SSW,202,3.4,5.1,48,0.00,,,-99.99,1.0,HOBO +U30 +Weather +,2013-01-27 02:10:00,
2013-01-26 19:15:00,45.8,28.0,-100.00,SSW,201,2.2,4.0,49,0.00,,,-99.99,1.0,HOBO +U30 +Weather +,2013-01-27 02:15:00,
2013-01-26 19:20:00,45.2,27.8,-100.00,SSW,211,0.0,1.8,50,0.00,,,-99.99,1.0,HOBO +U30 +Weather +,2013-01-27 02:20:00,
2013-01-26 19:25:00,43.2,27.4,-100.00,South,181,1.1,3.4,53,0.00,,,-99.99,1.0,HOBO +U30 +Weather +,2013-01-27 02:25:00,
2013-01-26 19:30:00,44.2,26.7,-100.00,SW,220,1.8,3.4,50,0.00,,,-99.99,1.0,HOBO +U30 +Weather +,2013-01-27 02:30:00,
2013-01-26 19:35:00,44.0,26.3,-100.00,WSW,244,2.2,5.1,49,0.00,,,-99.99,1.0,HOBO +U30 +Weather +,2013-01-27 02:35:00,
2013-01-26 19:40:00,44.1,26.0,-100.00,WSW,253,2.2,4.5,48,0.00,,,-99.99,1.0,HOBO +U30 +Weather +,2013-01-27 02:40:00,
2013-01-26 19:45:00,43.8,26.4,-100.00,WSW,253,1.1,3.4,50,0.00,,,-99.99,1.0,HOBO +U30 +Weather +,2013-01-27 02:45:00,
2013-01-26 19:50:00,41.8,27.0,-100.00,SSW,202,2.2,4.5,55,0.00,,,-99.99,1.0,HOBO +U30 +Weather +,2013-01-27 02:50:00,
2013-01-26 19:55:00,42.5,26.9,-100.00,SW,222,2.2,4.0,53,0.00,,,-99.99,1.0,HOBO +U30 +Weather +,2013-01-27 02:55:00,
2013-01-26 20:00:00,42.6,27.1,-100.00,SW,223,2.2,4.5,53,0.00,,,-99.99,1.0,HOBO +U30 +Weather +,2013-01-27 03:00:00,
2013-01-26 20:05:00,41.8,26.9,-100.00,SSW,211,4.0,7.4,55,0.00,,,-99.99,1.0,HOBO +U30 +Weather +,2013-01-27 03:05:00,
2013-01-26 20:10:00,41.5,27.0,-100.00,SSW,212,2.2,5.6,55,0.00,,,-99.99,1.0,HOBO +U30 +Weather +,2013-01-27 03:10:00,
2013-01-26 20:15:00,42.0,26.5,-100.00,WSW,239,3.4,5.1,53,0.00,,,-99.99,1.0,HOBO +U30 +Weather +,2013-01-27 03:15:00,
2013-01-26 20:20:00,43.0,26.2,-100.00,WSW,244,3.4,6.3,51,0.00,,,-99.99,1.0,HOBO +U30 +Weather +,2013-01-27 03:20:00,
2013-01-26 20:25:00,42.6,26.2,-100.00,WSW,237,1.1,3.4,52,0.00,,,-99.99,1.0,HOBO +U30 +Weather +,2013-01-27 03:25:00,
2013-01-26 20:30:00,41.8,26.5,-100.00,WSW,239,0.0,0.7,54,0.00,,,-99.99,1.0,HOBO +U30 +Weather +,2013-01-27 03:30:00,
2013-01-26 20:35:00,41.1,26.2,-100.00,SW,229,0.7,4.0,55,0.00,,,-99.99,1.0,HOBO +U30 +Weather +,2013-01-27 03:35:00,
2013-01-26 20:40:00,40.2,26.2,-100.00,South,181,4.0,5.6,57,0.00,,,-99.99,1.0,HOBO +U30 +Weather +,2013-01-27 03:40:00,
2013-01-26 20:45:00,40.2,26.4,-100.00,SSE,163,4.5,6.3,57,0.00,,,-99.99,1.0,HOBO +U30 +Weather +,2013-01-27 03:45:00,
2013-01-26 20:50:00,40.7,26.5,-100.00,SSE,163,4.0,5.6,56,0.00,,,-99.99,1.0,HOBO +U30 +Weather +,2013-01-27 03:50:00,
2013-01-26 20:55:00,39.7,26.7,-100.00,SSE,164,5.1,6.3,59,0.00,,,-99.99,1.0,HOBO +U30 +Weather +,2013-01-27 03:55:00,
2013-01-26 21:00:00,39.8,26.7,-100.00,SSE,161,5.1,6.3,59,0.00,,,-99.99,1.0,HOBO +U30 +Weather +,2013-01-27 04:00:00,
2013-01-26 21:05:00,39.9,26.8,-100.00,SSW,194,4.0,5.6,59,0.00,,,-99.99,1.0,HOBO +U30 +Weather +,2013-01-27 04:05:00,
2013-01-26 21:20:00,38.0,26.6,-100.00,WSW,237,1.1,3.4,63,0.00,,,-99.99,1.0,HOBO +U30 +Weather +,2013-01-27 04:20:00,
2013-01-26 21:25:00,37.6,26.6,-100.00,WSW,243,0.0,2.2,64,0.00,,,-99.99,1.0,HOBO +U30 +Weather +,2013-01-27 04:25:00,
2013-01-26 21:30:00,36.6,26.3,-100.00,WSW,243,0.0,0.0,65,0.00,,,-99.99,1.0,HOBO +U30 +Weather +,2013-01-27 04:30:00,
2013-01-26 21:35:00,36.1,26.6,-100.00,WSW,243,0.0,1.8,67,0.00,,,-99.99,1.0,HOBO +U30 +Weather +,2013-01-27 04:35:00,
2013-01-26 21:40:00,36.6,26.6,-100.00,WSW,243,0.0,1.1,66,0.00,,,-99.99,1.0,HOBO +U30 +Weather +,2013-01-27 04:40:00,
2013-01-26 21:45:00,36.6,26.6,-100.00,WSW,243,0.0,0.0,66,0.00,,,-99.99,1.0,HOBO +U30 +Weather +,2013-01-27 04:45:00,
2013-01-26 21:50:00,36.8,26.7,-100.00,WSW,243,0.0,0.0,66,0.00,,,-99.99,1.0,HOBO +U30 +Weather +,2013-01-27 04:50:00,
2013-01-26 21:55:00,37.0,26.7,-100.00,WSW,243,0.0,0.0,66,0.00,,,-99.99,1.0,HOBO +U30 +Weather +,2013-01-27 04:55:00,
2013-01-26 22:00:00,37.1,26.7,-100.00,WSW,243,0.0,1.1,65,0.00,,,-99.99,1.0,HOBO +U30 +Weather +,2013-01-27 05:00:00,
2013-01-26 22:05:00,37.2,26.6,-100.00,WSW,243,0.7,1.8,65,0.00,,,-99.99,1.0,HOBO +U30 +Weather +,2013-01-27 05:05:00,
2013-01-26 22:10:00,36.9,26.4,-100.00,SW,227,0.7,3.4,65,0.00,,,-99.99,1.0,HOBO +U30 +Weather +,2013-01-27 05:10:00,
2013-01-26 22:15:00,36.7,26.7,-100.00,SSW,209,2.2,3.4,66,0.00,,,-99.99,1.0,HOBO +U30 +Weather +,2013-01-27 05:15:00,
2013-01-26 22:20:00,37.5,26.8,-100.00,SW,216,0.7,2.9,65,0.00,,,-99.99,1.0,HOBO +U30 +Weather +,2013-01-27 05:20:00,
2013-01-26 22:25:00,36.8,26.6,-100.00,SW,232,0.7,2.9,66,0.00,,,-99.99,1.0,HOBO +U30 +Weather +,2013-01-27 05:25:00,
2013-01-26 22:30:00,36.4,26.2,-100.00,SW,236,0.0,1.1,66,0.00,,,-99.99,1.0,HOBO +U30 +Weather +,2013-01-27 05:30:00,
2013-01-26 22:35:00,35.7,26.2,-100.00,SSE,147,0.0,1.8,68,0.00,,,-99.99,1.0,HOBO +U30 +Weather +,2013-01-27 05:35:00,
2013-01-26 22:40:00,35.3,26.0,-100.00,SE,128,0.0,0.0,68,0.00,,,-99.99,1.0,HOBO +U30 +Weather +,2013-01-27 05:40:00,
2013-01-26 22:45:00,35.7,26.4,-100.00,SSE,152,0.0,1.1,68,0.00,,,-99.99,1.0,HOBO +U30 +Weather +,2013-01-27 05:45:00,
2013-01-26 22:50:00,35.7,26.3,-100.00,SSE,166,0.0,1.8,68,0.00,,,-99.99,1.0,HOBO +U30 +Weather +,2013-01-27 05:50:00,
2013-01-26 22:55:00,35.6,26.4,-100.00,SSE,163,0.0,1.1,68,0.00,,,-99.99,1.0,HOBO +U30 +Weather +,2013-01-27 05:55:00,
2013-01-26 23:00:00,35.4,26.3,-100.00,SSE,167,0.0,0.0,69,0.00,,,-99.99,1.0,HOBO +U30 +Weather +,2013-01-27 06:00:00,
2013-01-26 23:05:00,35.2,26.2,-100.00,SSE,167,0.0,0.0,69,0.00,,,-99.99,1.0,HOBO +U30 +Weather +,2013-01-27 06:05:00,
2013-01-26 23:10:00,34.5,25.9,-100.00,SSE,167,0.0,0.0,70,0.00,,,-99.99,1.0,HOBO +U30 +Weather +,2013-01-27 06:10:00,
2013-01-26 23:15:00,34.3,26.1,-100.00,SSE,167,0.0,0.0,71,0.00,,,-99.99,1.0,HOBO +U30 +Weather +,2013-01-27 06:15:00,
2013-01-26 23:20:00,34.1,26.2,-100.00,SSE,167,0.0,1.1,72,0.00,,,-99.99,1.0,HOBO +U30 +Weather +,2013-01-27 06:20:00,
2013-01-26 23:25:00,34.2,26.1,-100.00,SSW,213,1.1,4.0,71,0.00,,,-99.99,1.0,HOBO +U30 +Weather +,2013-01-27 06:25:00,
2013-01-26 23:30:00,33.8,25.9,-100.00,West,272,0.7,4.0,72,0.00,,,-99.99,1.0,HOBO +U30 +Weather +,2013-01-27 06:30:00,
2013-01-26 23:35:00,34.6,26.5,-100.00,WNW,282,1.1,4.0,71,0.00,,,-99.99,1.0,HOBO +U30 +Weather +,2013-01-27 06:35:00,
2013-01-26 23:50:00,35.0,26.1,-100.00,West,271,0.0,1.8,69,0.00,,,-99.99,1.0,HOBO +U30 +Weather +,2013-01-27 06:50:00,
2013-01-26 23:55:00,33.6,25.8,-100.00,West,271,0.0,0.7,72,0.00,,,-99.99,1.0,HOBO +U30 +Weather +,2013-01-27 06:55:00,